createdAt,value
2022-09-23T00:01:10.228Z,62.04
2022-09-23T00:03:39.155Z,62.33
2022-09-23T00:06:07.833Z,62.44
2022-09-23T00:08:35.157Z,62.38
2022-09-23T00:11:10.791Z,62.52
2022-09-23T00:13:38.755Z,62.69
2022-09-23T00:16:07.565Z,62.60
2022-09-23T00:18:33.774Z,62.74
2022-09-23T00:21:10.032Z,62.63
2022-09-23T00:23:37.185Z,62.74
2022-09-23T00:26:05.498Z,62.70
2022-09-23T00:28:32.689Z,62.78
2022-09-23T00:31:08.150Z,62.66
2022-09-23T00:33:34.821Z,62.69
2022-09-23T00:36:03.163Z,62.41
2022-09-23T00:38:29.503Z,63.13
2022-09-23T00:40:58.004Z,63.34
2022-09-23T00:43:43.115Z,63.35
2022-09-23T00:46:16.092Z,62.93
2022-09-23T00:48:43.525Z,62.67
2022-09-23T00:51:13.506Z,62.97
2022-09-23T00:53:40.973Z,62.62
2022-09-23T00:56:09.396Z,62.71
2022-09-23T00:58:39.225Z,62.69
2022-09-23T01:01:05.549Z,63.09
2022-09-23T01:03:32.020Z,62.88
2022-09-23T01:05:58.837Z,62.75
2022-09-23T01:08:26.734Z,62.85
2022-09-23T01:11:10.400Z,63.22
2022-09-23T01:14:01.356Z,63.12
2022-09-23T01:16:37.507Z,63.30
2022-09-23T01:19:03.657Z,63.29
2022-09-23T01:22:06.613Z,63.43
2022-09-23T01:24:46.315Z,63.04
2022-09-23T01:27:31.405Z,62.80
2022-09-23T01:30:09.745Z,62.69
2022-09-23T01:33:04.437Z,62.98
2022-09-23T01:35:59.784Z,63.28
2022-09-23T01:38:35.404Z,63.35
2022-09-23T01:41:49.924Z,63.24
2022-09-23T01:44:22.556Z,63.69
2022-09-23T01:47:25.057Z,63.75
2022-09-23T01:50:02.887Z,63.98
2022-09-23T01:52:47.332Z,63.88
2022-09-23T01:55:25.401Z,64.11
2022-09-23T01:58:04.497Z,63.87
2022-09-23T02:00:35.352Z,63.87
2022-09-23T02:03:12.765Z,63.91
2022-09-23T02:05:47.690Z,63.87
2022-09-23T02:08:20.786Z,64.04
2022-09-23T02:11:00.074Z,63.99
2022-09-23T02:13:42.048Z,64.29
2022-09-23T02:16:42.007Z,64.64
2022-09-23T02:19:26.813Z,64.32
2022-09-23T02:22:00.749Z,63.84
2022-09-23T02:24:31.248Z,63.92
2022-09-23T02:27:12.362Z,64.14
2022-09-23T02:29:50.775Z,64.06
2022-09-23T02:32:25.957Z,64.18
2022-09-23T02:35:07.579Z,64.12
2022-09-23T02:37:47.143Z,63.73
2022-09-23T02:40:23.006Z,64.01
2022-09-23T02:43:05.649Z,63.90
2022-09-23T02:45:33.235Z,63.82
2022-09-23T02:48:09.169Z,63.90
2022-09-23T02:50:37.729Z,64.17
2022-09-23T02:53:04.455Z,64.23
2022-09-23T02:55:33.865Z,64.13
2022-09-23T02:58:02.015Z,64.25
2022-09-23T03:00:53.554Z,64.29
2022-09-23T03:03:48.200Z,64.31
2022-09-23T03:06:24.415Z,64.48
2022-09-23T03:09:35.460Z,64.67
2022-09-23T03:12:26.799Z,64.66
2022-09-23T03:14:58.407Z,64.53
2022-09-23T03:17:46.274Z,64.53
2022-09-23T03:20:26.042Z,64.84
2022-09-23T03:23:00.345Z,64.42
2022-09-23T03:25:31.113Z,64.70
2022-09-23T03:28:00.609Z,64.52
2022-09-23T03:30:28.115Z,64.79
2022-09-23T03:32:56.839Z,64.72
2022-09-23T03:35:26.956Z,64.61
2022-09-23T03:38:13.000Z,64.35
2022-09-23T03:40:47.223Z,64.38
2022-09-23T03:43:13.998Z,64.29
2022-09-23T03:45:42.089Z,64.46
2022-09-23T03:48:08.416Z,64.31
2022-09-23T03:50:38.783Z,64.48
2022-09-23T03:53:04.898Z,64.52
2022-09-23T03:55:31.838Z,64.60
2022-09-23T03:57:59.876Z,64.68
2022-09-23T04:00:27.310Z,64.70
2022-09-23T04:02:53.456Z,64.82
2022-09-23T04:05:19.656Z,64.58
2022-09-23T04:07:45.841Z,64.70
2022-09-23T04:10:12.022Z,64.77
2022-09-23T04:12:38.253Z,64.47
2022-09-23T04:15:05.040Z,64.69
2022-09-23T04:17:31.149Z,65.05
2022-09-23T04:19:57.325Z,64.99
2022-09-23T04:22:25.502Z,64.94
2022-09-23T04:24:51.583Z,64.66
2022-09-23T04:27:17.792Z,64.53
2022-09-23T04:29:44.906Z,64.40
2022-09-23T04:32:11.313Z,64.63
2022-09-23T04:34:37.478Z,64.90
2022-09-23T04:37:03.956Z,64.81
2022-09-23T04:39:30.431Z,64.79
2022-09-23T04:41:56.602Z,64.82
2022-09-23T04:44:22.938Z,64.91
2022-09-23T04:46:49.279Z,64.88
2022-09-23T04:49:15.945Z,64.97
2022-09-23T04:51:43.009Z,64.93
2022-09-23T04:54:11.189Z,65.16
2022-09-23T04:56:37.636Z,65.21
2022-09-23T04:59:03.786Z,65.23
2022-09-23T05:01:36.591Z,65.55
2022-09-23T05:04:08.749Z,65.66
2022-09-23T05:06:35.816Z,65.47
2022-09-23T05:09:05.294Z,65.57
2022-09-23T05:11:32.353Z,65.76
2022-09-23T05:13:58.786Z,65.73
2022-09-23T05:16:26.700Z,65.59
2022-09-23T05:18:53.570Z,65.33
2022-09-23T05:21:23.260Z,65.51
2022-09-23T05:23:54.258Z,65.69
2022-09-23T05:26:25.361Z,65.62
2022-09-23T05:28:52.655Z,65.74
2022-09-23T05:31:22.177Z,65.65
2022-09-23T05:33:54.021Z,65.93
2022-09-23T05:36:21.801Z,65.79
2022-09-23T05:38:49.341Z,66.12
2022-09-23T05:41:17.561Z,65.65
2022-09-23T05:43:44.141Z,65.84
2022-09-23T05:46:16.592Z,65.91
2022-09-23T05:48:45.569Z,66.12
2022-09-23T05:51:18.556Z,66.12
2022-09-23T05:53:45.157Z,66.07
2022-09-23T05:56:16.784Z,66.25
2022-09-23T05:58:43.442Z,66.62
2022-09-23T06:01:12.836Z,66.46
2022-09-23T06:03:40.346Z,66.13
2022-09-23T06:06:07.458Z,66.01
2022-09-23T06:08:34.086Z,66.24
2022-09-23T06:11:08.519Z,66.43
2022-09-23T06:13:38.149Z,66.50
2022-09-23T06:16:10.298Z,66.37
2022-09-23T06:18:41.475Z,66.43
2022-09-23T06:21:11.334Z,66.46
2022-09-23T06:23:40.820Z,66.70
2022-09-23T06:26:09.978Z,66.83
2022-09-23T06:28:38.156Z,66.96
2022-09-23T06:31:13.328Z,67.10
2022-09-23T06:33:42.320Z,67.46
2022-09-23T06:36:09.917Z,67.59
2022-09-23T06:38:39.537Z,67.48
2022-09-23T06:41:05.805Z,67.31
2022-09-23T06:43:31.949Z,67.55
2022-09-23T06:46:00.225Z,67.73
2022-09-23T06:48:27.889Z,67.96
2022-09-23T06:50:57.951Z,67.88
2022-09-23T06:53:24.206Z,67.98
2022-09-23T06:56:03.368Z,67.74
2022-09-23T06:58:31.339Z,68.19
2022-09-23T07:01:06.992Z,68.15
2022-09-23T07:03:34.099Z,68.60
2022-09-23T07:06:01.317Z,68.21
2022-09-23T07:08:30.099Z,68.26
2022-09-23T07:10:58.541Z,68.58
2022-09-23T07:13:24.858Z,68.02
2022-09-23T07:15:52.781Z,68.14
2022-09-23T07:18:20.258Z,68.28
2022-09-23T07:20:46.419Z,68.59
2022-09-23T07:23:12.801Z,68.69
2022-09-23T07:25:39.546Z,68.69
2022-09-23T07:28:06.700Z,68.78
2022-09-23T07:30:37.129Z,68.68
2022-09-23T07:33:12.552Z,68.61
2022-09-23T07:35:47.227Z,69.01
2022-09-23T07:38:13.381Z,68.81
2022-09-23T07:40:39.587Z,68.83
2022-09-23T07:43:09.646Z,68.73
2022-09-23T07:45:38.475Z,68.72
2022-09-23T07:48:04.807Z,68.30
2022-09-23T07:50:31.751Z,68.44
2022-09-23T07:52:57.950Z,68.66
2022-09-23T07:55:24.151Z,68.70
2022-09-23T07:57:50.385Z,68.52
2022-09-23T08:00:17.384Z,68.43
2022-09-23T08:02:43.543Z,68.53
2022-09-23T08:05:09.820Z,68.32
2022-09-23T08:07:36.157Z,68.29
2022-09-23T08:10:03.132Z,68.38
2022-09-23T08:12:32.546Z,68.22
2022-09-23T08:15:00.894Z,67.68
2022-09-23T08:17:29.870Z,67.41
2022-09-23T08:19:55.991Z,66.99
2022-09-23T08:22:35.447Z,66.09
2022-09-23T08:25:03.275Z,65.91
2022-09-23T08:27:32.914Z,65.15
2022-09-23T08:30:00.623Z,64.73
2022-09-23T08:32:32.058Z,64.41
2022-09-23T08:34:59.390Z,64.22
2022-09-23T08:37:27.205Z,64.36
2022-09-23T08:39:55.065Z,64.17
2022-09-23T08:42:42.411Z,63.76
2022-09-23T08:45:18.431Z,63.50
2022-09-23T08:47:53.378Z,63.19
2022-09-23T08:50:23.874Z,63.18
2022-09-23T08:53:30.624Z,63.31
2022-09-23T08:55:59.745Z,62.16
2022-09-23T08:59:11.407Z,61.70
2022-09-23T09:01:54.332Z,60.40
2022-09-23T09:04:44.032Z,60.58
2022-09-23T09:07:35.646Z,60.14
2022-09-23T09:10:21.043Z,60.62
2022-09-23T09:13:25.793Z,59.87
2022-09-23T09:16:10.996Z,58.78
2022-09-23T09:18:46.202Z,58.65
2022-09-23T09:21:14.397Z,58.91
2022-09-23T09:23:57.401Z,59.31
2022-09-23T09:26:27.632Z,58.93
2022-09-23T09:29:34.748Z,58.18
2022-09-23T09:32:29.382Z,57.68
2022-09-23T09:35:01.588Z,58.42
2022-09-23T09:37:41.693Z,57.58
2022-09-23T09:40:25.210Z,58.22
2022-09-23T09:42:55.644Z,57.33
2022-09-23T09:45:53.859Z,56.39
2022-09-23T09:48:45.410Z,55.94
2022-09-23T09:51:32.627Z,58.13
2022-09-23T09:54:28.362Z,58.69
2022-09-23T09:57:02.504Z,59.23
2022-09-23T09:59:39.359Z,59.49
2022-09-23T10:02:33.412Z,59.90
2022-09-23T10:05:20.053Z,59.26
2022-09-23T10:07:48.438Z,58.96
2022-09-23T10:10:33.445Z,59.57
2022-09-23T10:13:15.269Z,60.42
2022-09-23T10:15:45.230Z,60.62
2022-09-23T10:18:46.954Z,60.02
2022-09-23T10:21:27.807Z,59.97
2022-09-23T10:24:09.063Z,59.26
2022-09-23T10:26:44.166Z,58.35
2022-09-23T10:30:00.656Z,57.54
2022-09-23T10:32:43.376Z,56.34
2022-09-23T10:35:15.976Z,56.06
2022-09-23T10:38:00.622Z,56.80
2022-09-23T10:40:51.776Z,55.56
2022-09-23T10:44:08.844Z,55.34
2022-09-23T10:46:53.623Z,54.86
2022-09-23T10:49:38.612Z,55.20
2022-09-23T10:52:22.675Z,55.46
2022-09-23T10:55:13.390Z,55.00
2022-09-23T10:57:51.963Z,55.47
2022-09-23T11:00:37.401Z,55.49
2022-09-23T11:03:22.909Z,55.21
2022-09-23T11:05:48.940Z,55.45
2022-09-23T11:08:34.011Z,54.50
2022-09-23T11:11:18.852Z,51.87
2022-09-23T11:14:21.648Z,51.05
2022-09-23T11:16:57.612Z,50.46
2022-09-23T11:19:52.575Z,50.69
2022-09-23T11:22:38.240Z,50.86
2022-09-23T11:25:07.308Z,51.51
2022-09-23T11:27:51.620Z,50.92
2022-09-23T11:30:22.656Z,50.18
2022-09-23T11:35:56.934Z,47.25
2022-09-23T11:38:44.045Z,46.06
2022-09-23T11:41:27.559Z,45.50
2022-09-23T11:44:23.102Z,45.92
2022-09-23T11:47:07.677Z,44.87
2022-09-23T11:49:46.057Z,45.51
2022-09-23T11:52:29.235Z,46.33
2022-09-23T11:55:10.070Z,45.41
2022-09-23T11:58:06.149Z,44.24
2022-09-23T12:00:38.891Z,45.83
2022-09-23T12:03:06.478Z,45.35
2022-09-23T12:05:39.530Z,45.68
2022-09-23T12:08:22.745Z,46.15
2022-09-23T12:11:27.868Z,45.54
2022-09-23T12:14:34.344Z,45.32
2022-09-23T12:17:14.286Z,44.54
2022-09-23T12:19:42.082Z,44.49
2022-09-23T12:22:20.140Z,45.16
2022-09-23T12:24:58.469Z,44.36
2022-09-23T12:27:37.780Z,44.11
2022-09-23T12:30:29.478Z,44.03
2022-09-23T12:33:09.637Z,44.22
2022-09-23T12:35:44.349Z,45.10
2022-09-23T12:38:32.207Z,45.87
2022-09-23T12:40:59.466Z,45.43
2022-09-23T12:43:35.196Z,45.26
2022-09-23T12:46:27.813Z,44.86
2022-09-23T12:49:00.640Z,45.15
2022-09-23T12:51:29.778Z,44.45
2022-09-23T12:54:05.213Z,44.68
2022-09-23T12:56:34.082Z,44.19
2022-09-23T12:59:11.720Z,44.61
2022-09-23T13:01:38.765Z,43.91
2022-09-23T13:04:23.417Z,43.14
2022-09-23T13:07:08.724Z,42.86
2022-09-23T13:10:27.183Z,42.01
2022-09-23T13:12:55.405Z,42.27
2022-09-23T13:15:34.220Z,42.49
2022-09-23T13:18:19.773Z,42.75
2022-09-23T13:20:47.869Z,42.91
2022-09-23T13:23:16.832Z,43.44
2022-09-23T13:25:51.812Z,43.05
2022-09-23T13:28:32.598Z,43.30
2022-09-23T13:31:07.636Z,43.72
2022-09-23T13:33:51.430Z,42.72
2022-09-23T13:36:20.051Z,43.33
2022-09-23T13:39:02.034Z,43.15
2022-09-23T13:41:28.737Z,42.93
2022-09-23T13:43:58.402Z,42.93
2022-09-23T13:46:34.774Z,43.00
2022-09-23T13:49:02.870Z,42.10
2022-09-23T13:51:34.592Z,42.14
2022-09-23T13:54:03.560Z,41.88
2022-09-23T13:56:34.824Z,42.04
2022-09-23T13:59:25.317Z,41.66
2022-09-23T14:02:20.279Z,39.75
2022-09-23T14:04:46.503Z,39.59
2022-09-23T14:07:15.333Z,40.54
2022-09-23T14:09:46.308Z,40.82
2022-09-23T14:12:13.042Z,39.94
2022-09-23T14:14:41.510Z,40.81
2022-09-23T14:17:09.762Z,40.38
2022-09-23T14:19:36.827Z,40.68
2022-09-23T14:22:02.944Z,40.70
2022-09-23T14:24:29.051Z,41.18
2022-09-23T14:27:06.344Z,40.42
2022-09-23T14:29:36.089Z,39.86
2022-09-23T14:32:12.245Z,40.01
2022-09-23T14:34:51.065Z,39.65
2022-09-23T14:37:38.458Z,40.06
2022-09-23T14:40:19.025Z,40.28
2022-09-23T14:42:51.817Z,40.82
2022-09-23T14:45:22.457Z,40.91
2022-09-23T14:47:53.232Z,41.10
2022-09-23T14:50:43.283Z,40.96
2022-09-23T14:53:22.084Z,41.02
2022-09-23T14:56:11.237Z,41.59
2022-09-23T14:58:52.281Z,42.04
2022-09-23T15:01:34.221Z,41.79
2022-09-23T15:04:23.421Z,41.98
2022-09-23T15:07:15.683Z,42.19
2022-09-23T15:09:43.643Z,41.61
2022-09-23T15:12:21.297Z,41.85
2022-09-23T15:14:53.976Z,42.13
2022-09-23T15:17:23.027Z,42.25
2022-09-23T15:19:56.328Z,42.57
2022-09-23T15:22:24.778Z,42.82
2022-09-23T15:24:53.011Z,43.01
2022-09-23T15:27:35.036Z,43.21
2022-09-23T15:30:16.804Z,43.25
2022-09-23T15:32:45.288Z,43.66
2022-09-23T15:35:25.097Z,43.98
2022-09-23T15:37:53.559Z,44.18
2022-09-23T15:40:30.879Z,44.23
2022-09-23T15:43:00.112Z,44.76
2022-09-23T15:45:33.472Z,45.03
2022-09-23T15:48:06.861Z,45.34
2022-09-23T15:50:35.387Z,44.99
2022-09-23T15:53:02.090Z,45.14
2022-09-23T15:55:28.431Z,45.60
2022-09-23T15:57:54.713Z,45.84
2022-09-23T16:00:21.036Z,45.98
2022-09-23T16:02:49.461Z,45.73
2022-09-23T16:05:34.982Z,46.13
2022-09-23T16:08:07.858Z,45.55
2022-09-23T16:10:35.745Z,46.08
2022-09-23T16:13:04.458Z,46.26
2022-09-23T16:15:32.625Z,46.77
2022-09-23T16:17:59.867Z,46.55
2022-09-23T16:20:29.256Z,46.62
2022-09-23T16:23:00.688Z,46.69
2022-09-23T16:25:31.409Z,46.84
2022-09-23T16:27:58.454Z,47.22
2022-09-23T16:30:27.125Z,46.84
2022-09-23T16:32:54.178Z,46.88
2022-09-23T16:35:26.366Z,47.01
2022-09-23T16:37:52.673Z,47.17
2022-09-23T16:40:21.520Z,47.00
2022-09-23T16:42:49.301Z,47.54
2022-09-23T16:45:18.529Z,47.58
2022-09-23T16:48:04.351Z,47.60
2022-09-23T16:50:39.075Z,47.99
2022-09-23T16:53:06.978Z,48.11
2022-09-23T16:55:38.088Z,48.29
2022-09-23T16:58:06.165Z,48.13
2022-09-23T17:00:53.961Z,48.82
2022-09-23T17:03:39.123Z,49.23
2022-09-23T17:06:08.044Z,49.19
2022-09-23T17:08:34.584Z,49.05
2022-09-23T17:11:03.995Z,49.11
2022-09-23T17:13:40.010Z,49.08
2022-09-23T17:16:09.452Z,49.05
2022-09-23T17:18:38.764Z,48.91
2022-09-23T17:21:26.317Z,49.27
2022-09-23T17:24:51.989Z,49.66
2022-09-23T17:27:19.364Z,49.74
2022-09-23T17:29:45.660Z,49.63
2022-09-23T17:32:11.810Z,50.05
2022-09-23T17:34:37.911Z,50.19
2022-09-23T17:37:04.130Z,50.32
2022-09-23T17:39:31.195Z,50.21
2022-09-23T17:41:58.020Z,50.85
2022-09-23T17:44:39.309Z,51.56
2022-09-23T17:47:05.763Z,51.79
2022-09-23T17:52:27.477Z,52.01
2022-09-23T17:54:54.491Z,52.42
2022-09-23T17:57:21.443Z,52.45
2022-09-23T17:59:50.229Z,52.53
2022-09-23T18:02:16.815Z,52.48
2022-09-23T18:04:42.990Z,52.62
2022-09-23T18:07:09.162Z,52.88
2022-09-23T18:09:35.378Z,52.54
2022-09-23T18:12:01.737Z,52.75
2022-09-23T18:14:28.962Z,52.20
2022-09-23T18:16:55.136Z,52.79
2022-09-23T18:19:24.046Z,52.92
2022-09-23T18:21:53.943Z,53.20
2022-09-23T18:24:31.731Z,53.00
2022-09-23T18:26:59.282Z,52.98
2022-09-23T18:29:26.199Z,53.33
2022-09-23T18:31:52.583Z,53.30
2022-09-23T18:34:19.973Z,53.27
2022-09-23T18:36:46.643Z,53.27
2022-09-23T18:39:12.926Z,53.44
2022-09-23T18:41:40.625Z,53.63
2022-09-23T18:44:06.934Z,53.87
2022-09-23T18:46:33.136Z,54.16
2022-09-23T18:49:18.512Z,54.17
2022-09-23T18:51:55.190Z,54.47
2022-09-23T18:54:27.141Z,54.57
2022-09-23T18:56:53.335Z,54.95
2022-09-23T18:59:24.135Z,54.97
2022-09-23T19:01:50.819Z,54.65
2022-09-23T19:04:19.803Z,54.71
2022-09-23T19:06:46.587Z,54.75
2022-09-23T19:09:14.283Z,54.82
2022-09-23T19:11:40.423Z,54.92
2022-09-23T19:14:10.771Z,55.02
2022-09-23T19:16:38.587Z,54.90
2022-09-23T19:19:05.645Z,55.31
2022-09-23T19:21:32.934Z,55.56
2022-09-23T19:24:04.967Z,55.59
2022-09-23T19:26:34.442Z,55.68
2022-09-23T19:29:02.800Z,55.32
2022-09-23T19:31:32.822Z,55.04
2022-09-23T19:34:01.673Z,55.64
2022-09-23T19:36:33.769Z,55.54
2022-09-23T19:39:04.231Z,56.14
2022-09-23T19:41:32.838Z,56.14
2022-09-23T19:44:02.788Z,56.10
2022-09-23T19:46:34.537Z,56.25
2022-09-23T19:49:00.728Z,56.26
2022-09-23T19:51:27.789Z,56.23
2022-09-23T19:53:53.963Z,56.17
2022-09-23T19:56:20.121Z,56.32
2022-09-23T19:58:50.606Z,56.23
2022-09-23T20:01:18.064Z,56.38
2022-09-23T20:03:45.155Z,56.30
2022-09-23T20:06:11.325Z,56.06
2022-09-23T20:08:38.141Z,55.82
2022-09-23T20:11:19.081Z,56.16
2022-09-23T20:13:50.173Z,55.84
2022-09-23T20:16:19.220Z,55.70
2022-09-23T20:18:50.751Z,55.79
2022-09-23T20:21:16.860Z,55.55
2022-09-23T20:23:43.145Z,55.61
2022-09-23T20:26:28.161Z,56.06
2022-09-23T20:28:54.931Z,55.89
2022-09-23T20:31:22.875Z,55.63
2022-09-23T20:33:57.907Z,55.91
2022-09-23T20:36:28.695Z,55.94
2022-09-23T20:39:00.348Z,56.13
2022-09-23T20:41:29.208Z,55.99
2022-09-23T20:44:00.143Z,56.41
2022-09-23T20:46:28.110Z,56.59
2022-09-23T20:48:55.682Z,57.04
2022-09-23T20:51:23.521Z,57.20
2022-09-23T20:53:54.068Z,57.04
2022-09-23T20:56:21.221Z,57.40
2022-09-23T20:58:49.825Z,57.21
2022-09-23T21:01:16.983Z,57.27
2022-09-23T21:03:45.962Z,57.10
2022-09-23T21:06:14.020Z,56.94
2022-09-23T21:08:41.783Z,57.04
2022-09-23T21:11:11.827Z,57.29
2022-09-23T21:13:38.648Z,57.43
2022-09-23T21:16:11.065Z,57.64
2022-09-23T21:18:38.059Z,57.53
2022-09-23T21:21:05.772Z,57.81
2022-09-23T21:23:38.455Z,57.80
2022-09-23T21:26:07.243Z,57.53
2022-09-23T21:28:35.348Z,57.61
2022-09-23T21:31:04.779Z,57.68
2022-09-23T21:33:31.413Z,57.23
2022-09-23T21:36:02.998Z,57.16
2022-09-23T21:38:30.320Z,57.38
2022-09-23T21:41:01.236Z,57.58
2022-09-23T21:43:32.743Z,57.53
2022-09-23T21:46:04.742Z,57.48
2022-09-23T21:48:33.645Z,57.59
2022-09-23T21:51:01.980Z,57.60
2022-09-23T21:53:29.762Z,57.79
2022-09-23T21:56:05.179Z,57.82
2022-09-23T21:58:32.648Z,57.73
2022-09-23T22:00:59.026Z,58.03
2022-09-23T22:03:25.528Z,58.16
2022-09-23T22:06:01.975Z,58.01
2022-09-23T22:08:36.419Z,58.28
2022-09-23T22:11:05.055Z,58.23
2022-09-23T22:13:31.235Z,58.20
2022-09-23T22:16:00.871Z,58.57
2022-09-23T22:18:28.107Z,58.29
2022-09-23T22:20:58.554Z,58.55
2022-09-23T22:23:24.792Z,58.44
2022-09-23T22:26:02.817Z,58.46
2022-09-23T22:28:51.302Z,58.37
2022-09-23T22:31:36.012Z,58.35
2022-09-23T22:34:02.180Z,58.49
2022-09-23T22:36:28.290Z,58.65
2022-09-23T22:39:00.162Z,58.61
2022-09-23T22:41:27.049Z,58.28
2022-09-23T22:43:53.379Z,58.49
2022-09-23T22:46:21.622Z,58.64
2022-09-23T22:48:51.755Z,58.89
2022-09-23T22:51:17.877Z,58.95
2022-09-23T22:53:44.115Z,58.76
2022-09-23T22:56:10.338Z,58.89
2022-09-23T22:58:36.493Z,58.99
2022-09-23T23:01:02.610Z,59.12
2022-09-23T23:03:30.019Z,59.21
2022-09-23T23:06:00.651Z,58.96
2022-09-23T23:08:28.413Z,58.93
2022-09-23T23:10:56.125Z,58.92
2022-09-23T23:13:27.912Z,59.11
2022-09-23T23:15:54.078Z,59.35
2022-09-23T23:18:20.236Z,59.17
2022-09-23T23:20:46.329Z,59.20
2022-09-23T23:23:12.466Z,59.21
2022-09-23T23:25:38.758Z,59.45
2022-09-23T23:28:05.419Z,59.53
2022-09-23T23:30:33.330Z,59.54
2022-09-23T23:32:59.531Z,59.75
2022-09-23T23:35:25.587Z,59.65
2022-09-23T23:37:51.664Z,59.58
2022-09-23T23:40:19.687Z,59.65
2022-09-23T23:42:46.471Z,59.83
2022-09-23T23:45:12.618Z,59.61
2022-09-23T23:47:39.671Z,59.72
2022-09-23T23:50:06.099Z,59.57
2022-09-23T23:52:32.237Z,59.79
2022-09-23T23:54:58.365Z,59.94
2022-09-23T23:57:24.456Z,59.68
2022-09-23T23:59:50.560Z,59.84
